HKJKHKEL

Guest
Details From HKJK - Nairobi Jomo Kanyatta Intl
To HKEL - Eldoret Intl
Flight Number -
Tags Generated
Created
Modified
Stats Distance 145 nm / 269 km
Max Altitude 0 ft / 0 m
Waypoints 2
Social Downloads 1
Likes 0
Share VATSIM

Download

Looking for another format? Having issues loading an existing format? Contact us
Advertisement - Login to hide

Notes

Generated

Route

HKJK HKEL

ID Type Via Altitude Latitude Longitude Leg Dist Tot Dist Heading (true) Name
O HKJK APT - 0 ft / 0 m -1.32774˚ 36.91612˚ - 0 nm - -
O HKEL APT - 0 ft / 0 m 0.40091˚ 35.22129˚ 145 nm 145 nm 316° / 316° -

Altitude Profile

Advertisement - Login to hide

HKJK

Details ICAO HKJK (NBO)
Name Nairobi Jomo Kanyatta Intl
Region Kenya
Timezone Africa/Nairobi (UTC+3.0)
Stats Elevation 5,330 ft / 1,625 m (AMSL)
Location -1.317073° 36.930757°
Runways 1
Magnetic Variation 0.576° E

METAR

HKJK 150600Z 04006KT 010V080 9999 FEW022 SCT080 21/14 Q1022

Decode

TAF

TAF HKJK 150500Z 1506/1612 06010KT 9999 SCT026 BECMG 1520/1523 03005KT CAVOK TEMPO 1600/1606 9999 FEW007 SCT016 BECMG 1608/1611 06010KT SCT025

Decode

Departure Runways

ID Width Length Bearing (true) Bearing (mag) Surface Threshold Offset Overrun Length
06 148 ft / 45 m 13,215 ft / 4,028 m 53.90° 53.32° Asphalt 0 ft / 0 m 194 ft / 59 m
24 148 ft / 45 m 13,215 ft / 4,028 m 233.90° 233.32° Asphalt 0 ft / 0 m 197 ft / 60 m

HKEL

Details ICAO HKEL (EDL)
Name ELDORET INTL
Region Kenya
Timezone Africa/Nairobi (UTC+3.0)
Stats Elevation 6,941 ft / 2,116 m (AMSL)
Location 0.404011° 35.236706°
Runways 1
Magnetic Variation 1.297° E

METAR

HKEL 150630Z 08005KT CAVOK 19/09 Q1026

Decode

TAF

TAF TAF HKEL 150500Z 1506/1606 06010KT 9999 SCT024 TEMPO 1512/1518 VRB10KT -TS FEW022CB SCT023 BKN080 BECMG 1520/1523 10005KT CAVOK

Decode

Destination Runways

ID Width Length Bearing (true) Bearing (mag) Surface Threshold Offset Overrun Length
08 148 ft / 45 m 11,473 ft / 3,497 m 78.64° 77.34° Asphalt 0 ft / 0 m 0 ft / 0 m
26 148 ft / 45 m 11,473 ft / 3,497 m 258.64° 257.34° Asphalt 0 ft / 0 m 0 ft / 0 m

Popular Alternatives